createdAt,value
2023-01-04T00:13:23.094Z,100
2023-01-04T00:42:24.218Z,100
2023-01-04T01:11:20.025Z,100
2023-01-04T01:40:07.928Z,100
2023-01-04T02:09:00.318Z,100
2023-01-04T02:37:51.899Z,100
2023-01-04T03:06:49.087Z,100
2023-01-04T03:35:47.937Z,100
2023-01-04T04:04:40.199Z,95.96
2023-01-04T04:33:41.209Z,95
2023-01-04T05:02:27.812Z,90.62
2023-01-04T05:31:07.011Z,89.25
2023-01-04T06:00:05.718Z,87.2
2023-01-04T06:28:28.731Z,85.91
2023-01-04T06:56:45.279Z,84.53
2023-01-04T07:25:04.655Z,82.49
2023-01-04T07:53:23.517Z,83.09
2023-01-04T08:21:42.903Z,79.51
2023-01-04T08:50:11.480Z,72.73
2023-01-04T09:18:33.360Z,73.39
2023-01-04T09:46:35.630Z,73.82
2023-01-04T10:14:48.843Z,73.3
2023-01-04T10:43:13.181Z,71.29
2023-01-04T11:11:31.387Z,71.9
2023-01-04T11:39:45.871Z,72.52
2023-01-04T12:08:11.440Z,74.4
2023-01-04T12:36:32.051Z,74.29
2023-01-04T13:33:29.050Z,76.12
2023-01-04T14:01:37.635Z,77.27
2023-01-04T14:29:53.384Z,77.07
2023-01-04T14:58:17.777Z,76.87
2023-01-04T15:26:39.784Z,76.62
2023-01-04T15:54:56.988Z,77.29
2023-01-04T16:23:16.575Z,79.18
2023-01-04T16:51:57.354Z,81.22
2023-01-04T17:21:33.003Z,82.44
2023-01-04T17:49:33.124Z,82.42
2023-01-04T18:18:08.023Z,82.84
2023-01-04T18:47:10.086Z,83.01
2023-01-04T19:16:00.589Z,82.04
2023-01-04T19:45:01.919Z,82.22
2023-01-04T20:13:57.724Z,83.75
2023-01-04T20:42:19.359Z,84.24
2023-01-04T21:10:43.178Z,85.72
2023-01-04T21:39:04.528Z,85.41
2023-01-04T22:07:28.047Z,87.89
2023-01-04T22:35:51.051Z,86.67
2023-01-04T23:04:16.596Z,88.32
2023-01-04T23:32:36.862Z,89.59
